sensor_id;sensor_type;location;lat;lon;timestamp;P1;durP1;ratioP1;P2;durP2;ratioP2
71042;SDS011;58696;52.134;5.500;2023-03-20T00:01:58;12.30;;;5.72;;
71042;SDS011;58696;52.134;5.500;2023-03-20T00:04:27;9.70;;;5.50;;
71042;SDS011;58696;52.134;5.500;2023-03-20T00:06:57;9.13;;;4.93;;
71042;SDS011;58696;52.134;5.500;2023-03-20T00:09:26;11.55;;;5.22;;
71042;SDS011;58696;52.134;5.500;2023-03-20T00:11:56;11.32;;;5.50;;
71042;SDS011;58696;52.134;5.500;2023-03-20T00:14:27;10.75;;;5.60;;
71042;SDS011;58696;52.134;5.500;2023-03-20T00:16:53;10.23;;;5.55;;
71042;SDS011;58696;52.134;5.500;2023-03-20T00:19:24;13.25;;;5.35;;
71042;SDS011;58696;52.134;5.500;2023-03-20T00:21:57;12.23;;;6.18;;
71042;SDS011;58696;52.134;5.500;2023-03-20T00:24:27;15.85;;;6.97;;
71042;SDS011;58696;52.134;5.500;2023-03-20T00:26:58;10.68;;;7.25;;
71042;SDS011;58696;52.134;5.500;2023-03-20T00:29:30;12.75;;;7.40;;
71042;SDS011;58696;52.134;5.500;2023-03-20T00:32:00;17.67;;;7.57;;
71042;SDS011;58696;52.134;5.500;2023-03-20T00:34:27;20.20;;;8.52;;
71042;SDS011;58696;52.134;5.500;2023-03-20T00:36:57;16.45;;;7.50;;
71042;SDS011;58696;52.134;5.500;2023-03-20T00:39:25;15.07;;;7.63;;
71042;SDS011;58696;52.134;5.500;2023-03-20T00:41:55;13.63;;;8.30;;
71042;SDS011;58696;52.134;5.500;2023-03-20T00:44:32;15.00;;;7.68;;
71042;SDS011;58696;52.134;5.500;2023-03-20T00:49:44;16.42;;;8.45;;
71042;SDS011;58696;52.134;5.500;2023-03-20T00:52:19;14.63;;;8.63;;
71042;SDS011;58696;52.134;5.500;2023-03-20T00:54:47;15.55;;;8.35;;
71042;SDS011;58696;52.134;5.500;2023-03-20T00:59:55;16.92;;;9.10;;
71042;SDS011;58696;52.134;5.500;2023-03-20T01:02:27;13.65;;;8.70;;
71042;SDS011;58696;52.134;5.500;2023-03-20T01:04:57;15.93;;;9.45;;
71042;SDS011;58696;52.134;5.500;2023-03-20T01:07:28;15.85;;;9.90;;
71042;SDS011;58696;52.134;5.500;2023-03-20T01:09:57;16.20;;;8.85;;
71042;SDS011;58696;52.134;5.500;2023-03-20T01:12:24;16.45;;;10.32;;
71042;SDS011;58696;52.134;5.500;2023-03-20T01:14:52;15.98;;;9.23;;
71042;SDS011;58696;52.134;5.500;2023-03-20T01:17:24;19.40;;;9.40;;
71042;SDS011;58696;52.134;5.500;2023-03-20T01:19:52;13.57;;;8.77;;
71042;SDS011;58696;52.134;5.500;2023-03-20T01:22:19;13.63;;;9.02;;
71042;SDS011;58696;52.134;5.500;2023-03-20T01:24:46;14.73;;;9.18;;
71042;SDS011;58696;52.134;5.500;2023-03-20T01:27:14;15.73;;;8.68;;
71042;SDS011;58696;52.134;5.500;2023-03-20T01:29:45;14.75;;;8.68;;
71042;SDS011;58696;52.134;5.500;2023-03-20T01:32:16;14.95;;;8.88;;
71042;SDS011;58696;52.134;5.500;2023-03-20T01:34:43;13.52;;;9.15;;
71042;SDS011;58696;52.134;5.500;2023-03-20T01:37:11;17.85;;;9.23;;
71042;SDS011;58696;52.134;5.500;2023-03-20T01:39:42;17.13;;;8.63;;
71042;SDS011;58696;52.134;5.500;2023-03-20T01:42:13;12.88;;;8.25;;
71042;SDS011;58696;52.134;5.500;2023-03-20T01:44:43;12.68;;;8.30;;
71042;SDS011;58696;52.134;5.500;2023-03-20T01:47:14;14.15;;;8.18;;
71042;SDS011;58696;52.134;5.500;2023-03-20T01:52:49;9.90;;;6.70;;
71042;SDS011;58696;52.134;5.500;2023-03-20T01:55:19;10.80;;;5.95;;
71042;SDS011;58696;52.134;5.500;2023-03-20T01:57:47;10.00;;;6.13;;
71042;SDS011;58696;52.134;5.500;2023-03-20T02:00:16;8.35;;;4.55;;
71042;SDS011;58696;52.134;5.500;2023-03-20T02:02:46;8.93;;;5.43;;
71042;SDS011;58696;52.134;5.500;2023-03-20T02:05:14;11.40;;;4.90;;
71042;SDS011;58696;52.134;5.500;2023-03-20T02:07:44;11.02;;;5.13;;
71042;SDS011;58696;52.134;5.500;2023-03-20T02:10:15;7.78;;;4.43;;
71042;SDS011;58696;52.134;5.500;2023-03-20T02:12:48;8.63;;;4.50;;
71042;SDS011;58696;52.134;5.500;2023-03-20T02:15:16;7.97;;;5.00;;
71042;SDS011;58696;52.134;5.500;2023-03-20T02:17:43;6.88;;;4.05;;
71042;SDS011;58696;52.134;5.500;2023-03-20T02:45:12;10.45;;;4.05;;
71042;SDS011;58696;52.134;5.500;2023-03-20T02:59:25;8.38;;;4.15;;
71042;SDS011;58696;52.134;5.500;2023-03-20T03:04:15;9.07;;;4.15;;
71042;SDS011;58696;52.134;5.500;2023-03-20T03:06:46;8.35;;;4.10;;
71042;SDS011;58696;52.134;5.500;2023-03-20T03:09:22;9.02;;;4.18;;
71042;SDS011;58696;52.134;5.500;2023-03-20T03:12:06;8.23;;;4.03;;
71042;SDS011;58696;52.134;5.500;2023-03-20T03:14:49;8.32;;;3.90;;
71042;SDS011;58696;52.134;5.500;2023-03-20T03:17:19;13.95;;;5.15;;
71042;SDS011;58696;52.134;5.500;2023-03-20T03:19:58;11.05;;;5.20;;
71042;SDS011;58696;52.134;5.500;2023-03-20T03:22:33;8.73;;;4.72;;
71042;SDS011;58696;52.134;5.500;2023-03-20T03:25:01;12.52;;;5.10;;
71042;SDS011;58696;52.134;5.500;2023-03-20T03:27:35;14.25;;;4.90;;
71042;SDS011;58696;52.134;5.500;2023-03-20T03:30:17;12.17;;;4.93;;
71042;SDS011;58696;52.134;5.500;2023-03-20T03:32:56;11.05;;;5.88;;
71042;SDS011;58696;52.134;5.500;2023-03-20T03:35:39;9.85;;;5.90;;
71042;SDS011;58696;52.134;5.500;2023-03-20T03:41:05;11.05;;;6.63;;
71042;SDS011;58696;52.134;5.500;2023-03-20T03:49:25;12.30;;;7.70;;
71042;SDS011;58696;52.134;5.500;2023-03-20T03:52:02;17.15;;;8.43;;
71042;SDS011;58696;52.134;5.500;2023-03-20T03:54:38;20.48;;;9.73;;
71042;SDS011;58696;52.134;5.500;2023-03-20T03:57:11;18.00;;;8.07;;
71042;SDS011;58696;52.134;5.500;2023-03-20T03:59:45;20.23;;;9.02;;
71042;SDS011;58696;52.134;5.500;2023-03-20T04:02:15;15.02;;;8.57;;
71042;SDS011;58696;52.134;5.500;2023-03-20T04:04:49;19.38;;;8.40;;
71042;SDS011;58696;52.134;5.500;2023-03-20T04:07:23;19.05;;;8.38;;
71042;SDS011;58696;52.134;5.500;2023-03-20T04:09:54;16.65;;;7.68;;
71042;SDS011;58696;52.134;5.500;2023-03-20T04:15:02;14.45;;;8.60;;
71042;SDS011;58696;52.134;5.500;2023-03-20T04:17:30;15.48;;;7.30;;
71042;SDS011;58696;52.134;5.500;2023-03-20T04:19:57;12.10;;;7.97;;
71042;SDS011;58696;52.134;5.500;2023-03-20T04:22:24;12.57;;;7.85;;
71042;SDS011;58696;52.134;5.500;2023-03-20T04:24:52;16.02;;;8.23;;
71042;SDS011;58696;52.134;5.500;2023-03-20T04:27:21;23.05;;;8.40;;
71042;SDS011;58696;52.134;5.500;2023-03-20T04:29:50;15.50;;;8.45;;
71042;SDS011;58696;52.134;5.500;2023-03-20T04:32:19;12.77;;;7.03;;
71042;SDS011;58696;52.134;5.500;2023-03-20T04:34:50;14.20;;;7.93;;
71042;SDS011;58696;52.134;5.500;2023-03-20T04:37:21;16.75;;;8.48;;
71042;SDS011;58696;52.134;5.500;2023-03-20T04:39:50;13.82;;;8.30;;
71042;SDS011;58696;52.134;5.500;2023-03-20T04:42:20;15.27;;;8.90;;
71042;SDS011;58696;52.134;5.500;2023-03-20T04:44:49;14.40;;;8.70;;
71042;SDS011;58696;52.134;5.500;2023-03-20T04:47:16;17.00;;;8.85;;
71042;SDS011;58696;52.134;5.500;2023-03-20T04:49:42;16.40;;;8.23;;
71042;SDS011;58696;52.134;5.500;2023-03-20T04:52:11;18.23;;;9.05;;
71042;SDS011;58696;52.134;5.500;2023-03-20T04:54:37;17.15;;;9.27;;
71042;SDS011;58696;52.134;5.500;2023-03-20T04:57:06;15.98;;;7.97;;
71042;SDS011;58696;52.134;5.500;2023-03-20T04:59:35;20.05;;;8.85;;
71042;SDS011;58696;52.134;5.500;2023-03-20T05:02:01;18.40;;;8.85;;
71042;SDS011;58696;52.134;5.500;2023-03-20T05:04:31;20.80;;;9.45;;
71042;SDS011;58696;52.134;5.500;2023-03-20T05:07:00;16.67;;;9.13;;
71042;SDS011;58696;52.134;5.500;2023-03-20T05:09:26;20.63;;;9.55;;
71042;SDS011;58696;52.134;5.500;2023-03-20T05:11:53;15.85;;;9.57;;
71042;SDS011;58696;52.134;5.500;2023-03-20T05:14:22;14.93;;;9.43;;
71042;SDS011;58696;52.134;5.500;2023-03-20T05:16:51;22.40;;;9.45;;
71042;SDS011;58696;52.134;5.500;2023-03-20T05:19:20;16.98;;;9.05;;
71042;SDS011;58696;52.134;5.500;2023-03-20T05:21:47;20.02;;;9.73;;
71042;SDS011;58696;52.134;5.500;2023-03-20T05:24:13;19.88;;;8.90;;
71042;SDS011;58696;52.134;5.500;2023-03-20T05:26:40;16.15;;;9.10;;
71042;SDS011;58696;52.134;5.500;2023-03-20T05:29:12;16.23;;;9.52;;
71042;SDS011;58696;52.134;5.500;2023-03-20T05:31:41;17.48;;;9.85;;
71042;SDS011;58696;52.134;5.500;2023-03-20T05:34:07;18.20;;;9.32;;
71042;SDS011;58696;52.134;5.500;2023-03-20T05:36:37;18.38;;;9.15;;
71042;SDS011;58696;52.134;5.500;2023-03-20T05:39:04;16.17;;;9.15;;
71042;SDS011;58696;52.134;5.500;2023-03-20T05:41:31;14.90;;;8.98;;
71042;SDS011;58696;52.134;5.500;2023-03-20T05:44:00;17.08;;;8.98;;
71042;SDS011;58696;52.134;5.500;2023-03-20T05:46:32;16.63;;;9.13;;
71042;SDS011;58696;52.134;5.500;2023-03-20T05:48:58;23.65;;;9.65;;
71042;SDS011;58696;52.134;5.500;2023-03-20T05:51:25;17.95;;;9.55;;
71042;SDS011;58696;52.134;5.500;2023-03-20T05:53:54;18.75;;;9.70;;
71042;SDS011;58696;52.134;5.500;2023-03-20T05:56:23;20.05;;;9.00;;
71042;SDS011;58696;52.134;5.500;2023-03-20T05:58:50;14.45;;;9.23;;
71042;SDS011;58696;52.134;5.500;2023-03-20T06:01:19;20.95;;;10.00;;
71042;SDS011;58696;52.134;5.500;2023-03-20T06:03:51;19.50;;;9.73;;
71042;SDS011;58696;52.134;5.500;2023-03-20T06:06:17;14.10;;;9.18;;
71042;SDS011;58696;52.134;5.500;2023-03-20T06:08:44;15.43;;;8.77;;
71042;SDS011;58696;52.134;5.500;2023-03-20T06:11:14;16.88;;;9.50;;
71042;SDS011;58696;52.134;5.500;2023-03-20T06:13:46;13.70;;;8.57;;
71042;SDS011;58696;52.134;5.500;2023-03-20T06:16:15;10.32;;;7.97;;
71042;SDS011;58696;52.134;5.500;2023-03-20T06:18:41;13.90;;;7.75;;
71042;SDS011;58696;52.134;5.500;2023-03-20T06:21:08;13.25;;;8.27;;
71042;SDS011;58696;52.134;5.500;2023-03-20T06:23:39;12.98;;;7.97;;
71042;SDS011;58696;52.134;5.500;2023-03-20T06:26:06;11.82;;;8.02;;
71042;SDS011;58696;52.134;5.500;2023-03-20T06:28:33;13.60;;;8.45;;
71042;SDS011;58696;52.134;5.500;2023-03-20T06:31:02;15.43;;;8.70;;
71042;SDS011;58696;52.134;5.500;2023-03-20T06:33:28;14.77;;;8.60;;
71042;SDS011;58696;52.134;5.500;2023-03-20T06:35:55;12.55;;;8.27;;
71042;SDS011;58696;52.134;5.500;2023-03-20T06:38:22;14.50;;;7.25;;
71042;SDS011;58696;52.134;5.500;2023-03-20T06:40:50;16.08;;;7.80;;
71042;SDS011;58696;52.134;5.500;2023-03-20T06:43:19;19.67;;;8.35;;
71042;SDS011;58696;52.134;5.500;2023-03-20T06:45:51;14.10;;;8.10;;
71042;SDS011;58696;52.134;5.500;2023-03-20T06:48:20;9.05;;;7.03;;
71042;SDS011;58696;52.134;5.500;2023-03-20T06:50:50;18.63;;;7.65;;
71042;SDS011;58696;52.134;5.500;2023-03-20T06:53:18;10.88;;;7.50;;
71042;SDS011;58696;52.134;5.500;2023-03-20T06:55:45;20.10;;;8.70;;
71042;SDS011;58696;52.134;5.500;2023-03-20T06:58:13;18.63;;;8.65;;
71042;SDS011;58696;52.134;5.500;2023-03-20T07:00:42;11.52;;;7.85;;
71042;SDS011;58696;52.134;5.500;2023-03-20T07:03:09;10.73;;;7.13;;
71042;SDS011;58696;52.134;5.500;2023-03-20T07:08:10;21.35;;;7.38;;
71042;SDS011;58696;52.134;5.500;2023-03-20T07:10:37;18.23;;;7.93;;
71042;SDS011;58696;52.134;5.500;2023-03-20T07:13:04;10.97;;;6.50;;
71042;SDS011;58696;52.134;5.500;2023-03-20T07:15:33;11.15;;;6.93;;
71042;SDS011;58696;52.134;5.500;2023-03-20T07:18:02;12.80;;;6.93;;
71042;SDS011;58696;52.134;5.500;2023-03-20T07:20:29;15.60;;;6.68;;
71042;SDS011;58696;52.134;5.500;2023-03-20T07:22:58;15.43;;;7.78;;
71042;SDS011;58696;52.134;5.500;2023-03-20T07:25:24;21.85;;;7.53;;
71042;SDS011;58696;52.134;5.500;2023-03-20T07:28:09;14.20;;;7.15;;
71042;SDS011;58696;52.134;5.500;2023-03-20T07:30:37;13.98;;;7.40;;
71042;SDS011;58696;52.134;5.500;2023-03-20T07:33:03;15.02;;;6.78;;
71042;SDS011;58696;52.134;5.500;2023-03-20T07:35:32;10.05;;;7.60;;
71042;SDS011;58696;52.134;5.500;2023-03-20T07:37:59;14.43;;;7.85;;
71042;SDS011;58696;52.134;5.500;2023-03-20T07:40:26;14.10;;;7.25;;
71042;SDS011;58696;52.134;5.500;2023-03-20T07:42:52;17.77;;;7.82;;
71042;SDS011;58696;52.134;5.500;2023-03-20T07:45:21;13.13;;;7.10;;
71042;SDS011;58696;52.134;5.500;2023-03-20T07:47:47;11.68;;;6.70;;
71042;SDS011;58696;52.134;5.500;2023-03-20T07:50:17;10.07;;;5.80;;
71042;SDS011;58696;52.134;5.500;2023-03-20T07:52:46;15.15;;;7.28;;
71042;SDS011;58696;52.134;5.500;2023-03-20T07:55:14;12.40;;;5.82;;
71042;SDS011;58696;52.134;5.500;2023-03-20T07:57:43;12.35;;;6.28;;
71042;SDS011;58696;52.134;5.500;2023-03-20T08:00:13;9.48;;;5.93;;
71042;SDS011;58696;52.134;5.500;2023-03-20T08:02:40;10.85;;;6.53;;
71042;SDS011;58696;52.134;5.500;2023-03-20T08:05:07;14.02;;;6.82;;
71042;SDS011;58696;52.134;5.500;2023-03-20T08:07:36;14.40;;;6.35;;
71042;SDS011;58696;52.134;5.500;2023-03-20T08:10:05;13.00;;;6.10;;
71042;SDS011;58696;52.134;5.500;2023-03-20T08:12:31;17.77;;;6.18;;
71042;SDS011;58696;52.134;5.500;2023-03-20T08:15:00;8.02;;;5.28;;
71042;SDS011;58696;52.134;5.500;2023-03-20T08:17:28;12.73;;;5.85;;
71042;SDS011;58696;52.134;5.500;2023-03-20T08:19:54;12.32;;;6.03;;
71042;SDS011;58696;52.134;5.500;2023-03-20T08:22:21;11.38;;;6.07;;
71042;SDS011;58696;52.134;5.500;2023-03-20T08:24:50;15.60;;;6.20;;
71042;SDS011;58696;52.134;5.500;2023-03-20T08:27:19;9.27;;;5.15;;
71042;SDS011;58696;52.134;5.500;2023-03-20T08:29:48;10.45;;;5.97;;
71042;SDS011;58696;52.134;5.500;2023-03-20T08:32:14;13.45;;;5.53;;
71042;SDS011;58696;52.134;5.500;2023-03-20T08:34:41;12.55;;;5.38;;
71042;SDS011;58696;52.134;5.500;2023-03-20T08:37:10;10.15;;;5.20;;
71042;SDS011;58696;52.134;5.500;2023-03-20T08:39:39;11.68;;;5.28;;
71042;SDS011;58696;52.134;5.500;2023-03-20T08:42:08;8.02;;;5.20;;
71042;SDS011;58696;52.134;5.500;2023-03-20T08:44:34;14.88;;;5.43;;
71042;SDS011;58696;52.134;5.500;2023-03-20T08:47:01;11.25;;;4.70;;
71042;SDS011;58696;52.134;5.500;2023-03-20T08:49:28;13.10;;;5.20;;
71042;SDS011;58696;52.134;5.500;2023-03-20T08:51:58;12.70;;;5.32;;
71042;SDS011;58696;52.134;5.500;2023-03-20T08:54:27;15.55;;;5.45;;
71042;SDS011;58696;52.134;5.500;2023-03-20T08:56:54;11.40;;;5.05;;
71042;SDS011;58696;52.134;5.500;2023-03-20T08:59:26;9.20;;;4.70;;
71042;SDS011;58696;52.134;5.500;2023-03-20T09:01:56;9.45;;;4.95;;
71042;SDS011;58696;52.134;5.500;2023-03-20T09:04:23;9.20;;;4.60;;
71042;SDS011;58696;52.134;5.500;2023-03-20T09:06:50;10.25;;;4.95;;
71042;SDS011;58696;52.134;5.500;2023-03-20T09:09:20;9.55;;;4.72;;
71042;SDS011;58696;52.134;5.500;2023-03-20T09:11:52;10.32;;;4.43;;
71042;SDS011;58696;52.134;5.500;2023-03-20T09:14:22;10.32;;;4.68;;
71042;SDS011;58696;52.134;5.500;2023-03-20T09:16:49;11.25;;;3.97;;
71042;SDS011;58696;52.134;5.500;2023-03-20T09:19:16;12.52;;;3.92;;
71042;SDS011;58696;52.134;5.500;2023-03-20T09:21:44;11.25;;;4.15;;
71042;SDS011;58696;52.134;5.500;2023-03-20T09:24:16;11.75;;;4.53;;
71042;SDS011;58696;52.134;5.500;2023-03-20T09:26:42;8.52;;;4.47;;
71042;SDS011;58696;52.134;5.500;2023-03-20T09:29:09;7.70;;;4.25;;
71042;SDS011;58696;52.134;5.500;2023-03-20T09:31:38;8.65;;;4.28;;
71042;SDS011;58696;52.134;5.500;2023-03-20T09:34:06;13.15;;;4.07;;
71042;SDS011;58696;52.134;5.500;2023-03-20T09:36:33;7.63;;;4.25;;
71042;SDS011;58696;52.134;5.500;2023-03-20T09:38:59;11.10;;;4.65;;
71042;SDS011;58696;52.134;5.500;2023-03-20T09:41:32;10.32;;;4.75;;
71042;SDS011;58696;52.134;5.500;2023-03-20T09:47:24;9.80;;;4.57;;
71042;SDS011;58696;52.134;5.500;2023-03-20T09:50:14;7.80;;;3.80;;
71042;SDS011;58696;52.134;5.500;2023-03-20T09:52:56;6.28;;;3.50;;
71042;SDS011;58696;52.134;5.500;2023-03-20T09:55:33;10.32;;;3.95;;
71042;SDS011;58696;52.134;5.500;2023-03-20T09:58:03;15.02;;;4.55;;
71042;SDS011;58696;52.134;5.500;2023-03-20T10:00:38;8.70;;;4.85;;
71042;SDS011;58696;52.134;5.500;2023-03-20T10:03:20;6.65;;;2.78;;
71042;SDS011;58696;52.134;5.500;2023-03-20T10:05:57;12.57;;;4.30;;
71042;SDS011;58696;52.134;5.500;2023-03-20T10:08:29;11.07;;;5.00;;
71042;SDS011;58696;52.134;5.500;2023-03-20T10:11:18;8.10;;;4.10;;
71042;SDS011;58696;52.134;5.500;2023-03-20T10:19:43;9.82;;;4.03;;
71042;SDS011;58696;52.134;5.500;2023-03-20T10:27:39;8.70;;;3.70;;
71042;SDS011;58696;52.134;5.500;2023-03-20T10:36:10;9.20;;;4.22;;
71042;SDS011;58696;52.134;5.500;2023-03-20T10:39:09;7.15;;;3.05;;
71042;SDS011;58696;52.134;5.500;2023-03-20T10:41:47;10.23;;;3.08;;
71042;SDS011;58696;52.134;5.500;2023-03-20T10:44:26;8.25;;;3.70;;
71042;SDS011;58696;52.134;5.500;2023-03-20T10:46:56;8.65;;;3.13;;
71042;SDS011;58696;52.134;5.500;2023-03-20T10:49:37;4.85;;;2.65;;
71042;SDS011;58696;52.134;5.500;2023-03-20T10:52:10;7.88;;;3.55;;
71042;SDS011;58696;52.134;5.500;2023-03-20T10:54:43;7.35;;;3.30;;
71042;SDS011;58696;52.134;5.500;2023-03-20T10:57:26;5.50;;;3.25;;
71042;SDS011;58696;52.134;5.500;2023-03-20T10:59:59;6.60;;;3.08;;
71042;SDS011;58696;52.134;5.500;2023-03-20T11:02:30;7.63;;;3.08;;
71042;SDS011;58696;52.134;5.500;2023-03-20T11:04:58;7.55;;;3.67;;
71042;SDS011;58696;52.134;5.500;2023-03-20T11:10:06;7.82;;;3.92;;
71042;SDS011;58696;52.134;5.500;2023-03-20T11:12:49;8.68;;;3.72;;
71042;SDS011;58696;52.134;5.500;2023-03-20T11:15:22;12.40;;;3.72;;
71042;SDS011;58696;52.134;5.500;2023-03-20T11:18:00;13.20;;;3.90;;
71042;SDS011;58696;52.134;5.500;2023-03-20T11:20:36;7.30;;;3.60;;
71042;SDS011;58696;52.134;5.500;2023-03-20T11:23:07;6.47;;;2.88;;
71042;SDS011;58696;52.134;5.500;2023-03-20T11:25:47;10.85;;;3.72;;
71042;SDS011;58696;52.134;5.500;2023-03-20T11:28:18;6.18;;;3.75;;
71042;SDS011;58696;52.134;5.500;2023-03-20T11:33:36;10.82;;;4.22;;
71042;SDS011;58696;52.134;5.500;2023-03-20T11:36:27;9.00;;;3.90;;
71042;SDS011;58696;52.134;5.500;2023-03-20T11:39:44;7.47;;;3.55;;
71042;SDS011;58696;52.134;5.500;2023-03-20T11:41:52;9.38;;;4.22;;
71042;SDS011;58696;52.134;5.500;2023-03-20T11:44:41;7.88;;;3.70;;
71042;SDS011;58696;52.134;5.500;2023-03-20T11:47:11;9.40;;;4.55;;
71042;SDS011;58696;52.134;5.500;2023-03-20T11:49:45;7.82;;;3.50;;
71042;SDS011;58696;52.134;5.500;2023-03-20T11:52:36;14.35;;;4.78;;
71042;SDS011;58696;52.134;5.500;2023-03-20T11:55:27;10.55;;;3.97;;
71042;SDS011;58696;52.134;5.500;2023-03-20T11:57:57;12.10;;;4.57;;
71042;SDS011;58696;52.134;5.500;2023-03-20T12:00:30;13.60;;;4.55;;
71042;SDS011;58696;52.134;5.500;2023-03-20T12:03:05;15.88;;;4.88;;
71042;SDS011;58696;52.134;5.500;2023-03-20T12:05:58;12.93;;;4.95;;
71042;SDS011;58696;52.134;5.500;2023-03-20T12:08:31;9.52;;;4.80;;
71042;SDS011;58696;52.134;5.500;2023-03-20T12:11:05;11.88;;;5.00;;
71042;SDS011;58696;52.134;5.500;2023-03-20T12:13:44;10.52;;;5.70;;
71042;SDS011;58696;52.134;5.500;2023-03-20T12:16:17;12.68;;;5.95;;
71042;SDS011;58696;52.134;5.500;2023-03-20T12:18:51;8.50;;;4.78;;
71042;SDS011;58696;52.134;5.500;2023-03-20T12:21:28;15.07;;;6.05;;
71042;SDS011;58696;52.134;5.500;2023-03-20T12:26:55;13.43;;;5.97;;
71042;SDS011;58696;52.134;5.500;2023-03-20T12:29:45;11.60;;;5.25;;
71042;SDS011;58696;52.134;5.500;2023-03-20T12:37:59;10.35;;;5.70;;
71042;SDS011;58696;52.134;5.500;2023-03-20T12:40:31;10.25;;;5.70;;
71042;SDS011;58696;52.134;5.500;2023-03-20T12:43:14;9.75;;;6.82;;
71042;SDS011;58696;52.134;5.500;2023-03-20T12:45:51;12.43;;;6.03;;
71042;SDS011;58696;52.134;5.500;2023-03-20T12:56:52;11.93;;;6.28;;
71042;SDS011;58696;52.134;5.500;2023-03-20T12:59:26;9.50;;;6.15;;
71042;SDS011;58696;52.134;5.500;2023-03-20T13:10:21;9.88;;;5.93;;
71042;SDS011;58696;52.134;5.500;2023-03-20T13:12:56;10.25;;;6.35;;
71042;SDS011;58696;52.134;5.500;2023-03-20T13:21:36;12.68;;;6.07;;
71042;SDS011;58696;52.134;5.500;2023-03-20T13:25:09;12.52;;;5.93;;
71042;SDS011;58696;52.134;5.500;2023-03-20T13:30:07;15.07;;;6.45;;
71042;SDS011;58696;52.134;5.500;2023-03-20T13:35:34;11.07;;;5.78;;
71042;SDS011;58696;52.134;5.500;2023-03-20T13:38:10;15.23;;;6.05;;
71042;SDS011;58696;52.134;5.500;2023-03-20T13:40:41;14.82;;;6.28;;
71042;SDS011;58696;52.134;5.500;2023-03-20T13:45:50;11.40;;;5.93;;
71042;SDS011;58696;52.134;5.500;2023-03-20T13:48:29;13.50;;;6.40;;
71042;SDS011;58696;52.134;5.500;2023-03-20T13:53:43;13.25;;;6.20;;
71042;SDS011;58696;52.134;5.500;2023-03-20T13:56:28;13.60;;;5.97;;
71042;SDS011;58696;52.134;5.500;2023-03-20T13:58:59;10.02;;;5.47;;
71042;SDS011;58696;52.134;5.500;2023-03-20T14:04:13;11.90;;;6.38;;
71042;SDS011;58696;52.134;5.500;2023-03-20T14:06:51;14.32;;;7.03;;
71042;SDS011;58696;52.134;5.500;2023-03-20T14:12:00;13.48;;;5.78;;
71042;SDS011;58696;52.134;5.500;2023-03-20T14:14:45;11.40;;;5.53;;
71042;SDS011;58696;52.134;5.500;2023-03-20T14:17:20;13.30;;;5.72;;
71042;SDS011;58696;52.134;5.500;2023-03-20T14:19:51;15.63;;;6.05;;
71042;SDS011;58696;52.134;5.500;2023-03-20T14:22:26;11.70;;;6.32;;
71042;SDS011;58696;52.134;5.500;2023-03-20T14:25:04;10.55;;;6.35;;
71042;SDS011;58696;52.134;5.500;2023-03-20T14:27:34;11.65;;;6.35;;
71042;SDS011;58696;52.134;5.500;2023-03-20T14:32:58;12.35;;;6.53;;
71042;SDS011;58696;52.134;5.500;2023-03-20T14:35:49;15.55;;;7.03;;
71042;SDS011;58696;52.134;5.500;2023-03-20T14:38:26;17.83;;;6.80;;
71042;SDS011;58696;52.134;5.500;2023-03-20T14:57:54;10.13;;;5.85;;
71042;SDS011;58696;52.134;5.500;2023-03-20T15:00:23;12.48;;;6.43;;
71042;SDS011;58696;52.134;5.500;2023-03-20T15:02:53;12.55;;;6.30;;
71042;SDS011;58696;52.134;5.500;2023-03-20T15:05:25;10.52;;;6.35;;
71042;SDS011;58696;52.134;5.500;2023-03-20T15:08:02;14.18;;;5.82;;
71042;SDS011;58696;52.134;5.500;2023-03-20T15:10:35;10.60;;;6.18;;
71042;SDS011;58696;52.134;5.500;2023-03-20T15:13:09;19.80;;;6.22;;
71042;SDS011;58696;52.134;5.500;2023-03-20T15:15:50;10.95;;;6.15;;
71042;SDS011;58696;52.134;5.500;2023-03-20T15:18:22;14.27;;;6.32;;
71042;SDS011;58696;52.134;5.500;2023-03-20T15:20:51;17.20;;;6.45;;
71042;SDS011;58696;52.134;5.500;2023-03-20T15:23:17;15.20;;;6.63;;
71042;SDS011;58696;52.134;5.500;2023-03-20T15:25:47;10.68;;;5.40;;
71042;SDS011;58696;52.134;5.500;2023-03-20T15:28:19;20.65;;;6.85;;
71042;SDS011;58696;52.134;5.500;2023-03-20T15:30:52;10.32;;;5.55;;
71042;SDS011;58696;52.134;5.500;2023-03-20T15:35:56;11.85;;;5.93;;
71042;SDS011;58696;52.134;5.500;2023-03-20T15:38:25;10.15;;;6.00;;
71042;SDS011;58696;52.134;5.500;2023-03-20T15:40:57;16.60;;;6.40;;
71042;SDS011;58696;52.134;5.500;2023-03-20T15:43:26;10.05;;;5.20;;
71042;SDS011;58696;52.134;5.500;2023-03-20T15:45:55;8.23;;;5.00;;
71042;SDS011;58696;52.134;5.500;2023-03-20T15:48:45;14.05;;;5.90;;
71042;SDS011;58696;52.134;5.500;2023-03-20T15:51:13;13.95;;;6.05;;
71042;SDS011;58696;52.134;5.500;2023-03-20T15:53:41;9.15;;;5.32;;
71042;SDS011;58696;52.134;5.500;2023-03-20T15:56:14;8.80;;;4.65;;
71042;SDS011;58696;52.134;5.500;2023-03-20T15:58:45;11.65;;;5.53;;
71042;SDS011;58696;52.134;5.500;2023-03-20T16:01:18;9.93;;;5.85;;
71042;SDS011;58696;52.134;5.500;2023-03-20T16:03:47;12.38;;;5.60;;
71042;SDS011;58696;52.134;5.500;2023-03-20T16:06:16;11.00;;;6.13;;
71042;SDS011;58696;52.134;5.500;2023-03-20T16:08:45;8.88;;;5.30;;
71042;SDS011;58696;52.134;5.500;2023-03-20T16:11:24;13.20;;;6.35;;
71042;SDS011;58696;52.134;5.500;2023-03-20T16:13:53;8.63;;;5.93;;
71042;SDS011;58696;52.134;5.500;2023-03-20T16:16:20;9.80;;;6.35;;
71042;SDS011;58696;52.134;5.500;2023-03-20T16:18:49;9.95;;;6.50;;
71042;SDS011;58696;52.134;5.500;2023-03-20T16:24:24;13.88;;;6.82;;
71042;SDS011;58696;52.134;5.500;2023-03-20T16:26:54;15.98;;;6.97;;
71042;SDS011;58696;52.134;5.500;2023-03-20T16:29:21;18.20;;;6.90;;
71042;SDS011;58696;52.134;5.500;2023-03-20T16:31:54;17.17;;;7.72;;
71042;SDS011;58696;52.134;5.500;2023-03-20T16:34:26;13.82;;;7.03;;
71042;SDS011;58696;52.134;5.500;2023-03-20T16:37:00;13.47;;;7.67;;
71042;SDS011;58696;52.134;5.500;2023-03-20T16:39:45;13.63;;;5.75;;
71042;SDS011;58696;52.134;5.500;2023-03-20T16:42:22;10.80;;;7.00;;
71042;SDS011;58696;52.134;5.500;2023-03-20T16:44:54;17.42;;;7.65;;
71042;SDS011;58696;52.134;5.500;2023-03-20T16:47:23;19.15;;;7.38;;
71042;SDS011;58696;52.134;5.500;2023-03-20T16:52:48;17.30;;;7.35;;
71042;SDS011;58696;52.134;5.500;2023-03-20T16:57:58;19.70;;;7.15;;
71042;SDS011;58696;52.134;5.500;2023-03-20T17:00:32;18.45;;;7.47;;
71042;SDS011;58696;52.134;5.500;2023-03-20T17:03:17;16.27;;;7.53;;
71042;SDS011;58696;52.134;5.500;2023-03-20T17:08:34;17.63;;;8.55;;
71042;SDS011;58696;52.134;5.500;2023-03-20T17:11:13;17.60;;;7.78;;
71042;SDS011;58696;52.134;5.500;2023-03-20T17:13:49;17.33;;;8.70;;
71042;SDS011;58696;52.134;5.500;2023-03-20T17:16:19;19.95;;;8.00;;
71042;SDS011;58696;52.134;5.500;2023-03-20T17:21:35;15.13;;;7.65;;
71042;SDS011;58696;52.134;5.500;2023-03-20T17:24:06;16.23;;;8.48;;
71042;SDS011;58696;52.134;5.500;2023-03-20T17:26:33;16.75;;;8.43;;
71042;SDS011;58696;52.134;5.500;2023-03-20T17:28:59;14.60;;;8.48;;
71042;SDS011;58696;52.134;5.500;2023-03-20T17:31:28;16.20;;;8.70;;
71042;SDS011;58696;52.134;5.500;2023-03-20T17:33:55;28.27;;;9.80;;
71042;SDS011;58696;52.134;5.500;2023-03-20T17:36:25;14.27;;;8.90;;
71042;SDS011;58696;52.134;5.500;2023-03-20T17:38:56;17.80;;;10.45;;
71042;SDS011;58696;52.134;5.500;2023-03-20T17:41:26;16.60;;;8.38;;
71042;SDS011;58696;52.134;5.500;2023-03-20T17:43:53;14.63;;;8.57;;
71042;SDS011;58696;52.134;5.500;2023-03-20T17:46:24;22.83;;;9.18;;
71042;SDS011;58696;52.134;5.500;2023-03-20T17:49:06;20.35;;;9.32;;
71042;SDS011;58696;52.134;5.500;2023-03-20T17:51:37;14.35;;;8.95;;
71042;SDS011;58696;52.134;5.500;2023-03-20T17:54:06;13.68;;;8.90;;
71042;SDS011;58696;52.134;5.500;2023-03-20T17:56:37;20.00;;;9.25;;